Time;durP1;ratioP1;P1;durP2;ratioP2;P2;SDS_P1;SDS_P2;PMS_P1;PMS_P2;Temp;Humidity;BMP_temperature;BMP_pressure;BME280_temperature;BME280_humidity;BME280_pressure;Samples;Min_cycle;Max_cycle;Signal;HPM_P1;HPM_P2
2024/02/21 00:00:46;;;;;;;14.03;2.40;;;3.80;99.90;;;;;;6215166;23;20009;-76
2024/02/21 00:03:12;;;;;;;6.10;2.47;;;3.80;99.90;;;;;;6214730;23;20001;-76
2024/02/21 00:05:37;;;;;;;9.20;2.50;;;3.80;99.90;;;;;;6214341;23;20079;-76
2024/02/21 00:08:03;;;;;;;7.40;2.43;;;3.80;99.90;;;;;;6214906;23;19997;-75
2024/02/21 00:10:29;;;;;;;9.97;2.70;;;3.90;99.90;;;;;;6214779;23;20080;-76
2024/02/21 00:12:54;;;;;;;7.00;2.90;;;3.90;99.90;;;;;;6214921;23;20004;-76
2024/02/21 00:15:21;;;;;;;9.73;2.73;;;4.00;99.90;;;;;;6214407;23;20001;-76
2024/02/21 00:17:46;;;;;;;11.03;3.50;;;4.00;99.90;;;;;;6214468;23;20009;-76
2024/02/21 00:20:12;;;;;;;7.10;2.33;;;4.00;99.90;;;;;;6214690;23;20016;-77
2024/02/21 00:22:38;;;;;;;10.77;2.60;;;4.10;99.90;;;;;;6214880;23;20053;-76
2024/02/21 00:25:04;;;;;;;6.67;2.50;;;4.10;99.90;;;;;;6214248;23;20323;-77
2024/02/21 00:27:30;;;;;;;8.50;2.40;;;4.10;99.90;;;;;;6214826;23;20348;-76
2024/02/21 00:29:56;;;;;;;10.43;3.30;;;4.20;99.90;;;;;;6214503;23;20004;-76
2024/02/21 00:32:22;;;;;;;6.80;2.40;;;4.20;99.90;;;;;;6214750;23;20003;-76
2024/02/21 00:34:47;;;;;;;12.20;2.80;;;4.20;99.90;;;;;;6213559;23;20001;-76
2024/02/21 00:37:13;;;;;;;8.47;2.43;;;4.20;99.90;;;;;;6214115;23;20079;-76
2024/02/21 00:39:38;;;;;;;8.13;2.20;;;4.20;99.90;;;;;;6213968;23;20040;-76
2024/02/21 00:42:04;;;;;;;6.27;2.33;;;4.30;99.90;;;;;;6214167;23;20004;-76
2024/02/21 00:44:30;;;;;;;10.97;2.70;;;4.30;99.90;;;;;;6213758;23;20478;-76
2024/02/21 00:46:55;;;;;;;9.30;2.53;;;4.30;99.90;;;;;;6214746;23;20019;-76
2024/02/21 00:49:21;;;;;;;8.07;2.47;;;4.30;99.90;;;;;;6214426;23;20478;-76
2024/02/21 00:51:47;;;;;;;7.47;2.17;;;4.30;99.90;;;;;;6214618;23;20011;-77
2024/02/21 00:54:12;;;;;;;7.57;2.77;;;4.30;99.90;;;;;;6213621;23;20054;-76
2024/02/21 00:56:38;;;;;;;6.07;2.20;;;4.30;99.90;;;;;;6214696;23;20079;-76
2024/02/21 00:59:04;;;;;;;8.97;2.83;;;4.30;99.90;;;;;;6214259;23;20086;-76
2024/02/21 01:01:29;;;;;;;6.50;2.40;;;4.30;99.90;;;;;;6214174;23;20009;-77
2024/02/21 01:03:55;;;;;;;10.77;3.13;;;4.30;99.90;;;;;;6213552;23;20080;-76
2024/02/21 01:06:21;;;;;;;7.73;3.10;;;4.40;99.90;;;;;;6213728;23;19992;-76
2024/02/21 01:08:49;;;;;;;8.80;2.90;;;4.40;99.90;;;;;;6214194;23;20028;-77
2024/02/21 01:11:18;;;;;;;7.67;2.60;;;4.40;99.90;;;;;;6214035;23;20084;-76
2024/02/21 01:13:44;;;;;;;7.57;2.40;;;4.40;99.90;;;;;;6213951;23;20009;-77
2024/02/21 01:16:10;;;;;;;6.23;3.07;;;4.40;99.90;;;;;;6213624;23;20499;-76
2024/02/21 01:18:37;;;;;;;5.63;1.97;;;4.40;99.90;;;;;;6213822;23;20032;-77
2024/02/21 01:21:06;;;;;;;6.40;2.20;;;4.40;99.90;;;;;;6214083;23;20016;-77
2024/02/21 01:23:36;;;;;;;7.60;2.40;;;4.40;99.90;;;;;;6213690;23;20014;-76
2024/02/21 01:26:02;;;;;;;9.77;2.80;;;4.40;99.90;;;;;;6213776;23;20001;-76
2024/02/21 01:28:27;;;;;;;6.70;2.40;;;4.40;99.90;;;;;;6214254;23;20023;-76
2024/02/21 01:30:53;;;;;;;6.63;2.13;;;4.40;99.90;;;;;;6214482;23;20004;-76
2024/02/21 01:33:19;;;;;;;8.97;2.40;;;4.40;99.90;;;;;;6213828;23;20091;-76
2024/02/21 01:35:44;;;;;;;7.63;2.43;;;4.40;99.90;;;;;;6213251;23;20009;-76
2024/02/21 01:38:10;;;;;;;7.70;2.30;;;4.40;99.90;;;;;;6213952;23;20012;-76
2024/02/21 01:40:37;;;;;;;7.37;2.60;;;4.50;99.90;;;;;;6213687;23;20380;-76
2024/02/21 01:43:03;;;;;;;5.87;2.10;;;4.40;99.90;;;;;;6213580;23;20008;-76
2024/02/21 01:45:28;;;;;;;8.33;2.30;;;4.50;99.90;;;;;;6213217;23;19993;-76
2024/02/21 01:47:54;;;;;;;4.67;2.00;;;4.50;99.90;;;;;;6213991;23;20088;-76
2024/02/21 01:50:22;;;;;;;7.13;2.23;;;4.50;99.90;;;;;;6213455;23;20386;-76
2024/02/21 01:52:50;;;;;;;7.27;3.03;;;4.50;99.90;;;;;;6213276;23;20079;-76
2024/02/21 01:55:16;;;;;;;5.43;2.33;;;4.50;99.90;;;;;;6212909;23;20005;-76
2024/02/21 01:57:45;;;;;;;6.63;2.23;;;4.50;99.90;;;;;;6213755;23;19997;-76
2024/02/21 02:00:13;;;;;;;6.23;2.07;;;4.50;99.90;;;;;;6213878;23;20038;-75
2024/02/21 02:02:39;;;;;;;7.20;2.60;;;4.50;99.90;;;;;;6213864;23;20005;-76
2024/02/21 02:05:06;;;;;;;10.37;3.00;;;4.50;99.90;;;;;;6213337;23;19996;-76
2024/02/21 02:07:31;;;;;;;8.23;2.70;;;4.50;99.90;;;;;;6213724;23;19996;-77
2024/02/21 02:09:57;;;;;;;7.33;1.97;;;4.50;99.90;;;;;;6213176;23;20004;-76
2024/02/21 02:12:23;;;;;;;6.80;1.97;;;4.50;99.90;;;;;;6213760;23;20000;-76
2024/02/21 02:14:58;;;;;;;7.57;2.47;;;4.50;99.90;;;;;;6213064;23;20004;-76
2024/02/21 02:17:24;;;;;;;6.57;2.10;;;4.60;99.90;;;;;;6212931;23;20019;-76
2024/02/21 02:19:50;;;;;;;4.23;2.10;;;4.50;99.90;;;;;;6212626;23;20095;-76
2024/02/21 02:22:22;;;;;;;5.30;2.10;;;4.50;99.90;;;;;;6214074;23;19997;-76
2024/02/21 02:24:47;;;;;;;6.23;2.30;;;4.50;99.90;;;;;;6213258;23;20055;-76
2024/02/21 02:27:13;;;;;;;11.30;2.77;;;4.60;99.90;;;;;;6213420;23;20431;-76
2024/02/21 02:29:38;;;;;;;7.47;2.47;;;4.50;99.90;;;;;;6214020;23;20338;-76
2024/02/21 02:32:04;;;;;;;4.77;1.73;;;4.60;99.90;;;;;;6213650;23;20423;-76
2024/02/21 02:34:30;;;;;;;5.20;1.70;;;4.50;99.90;;;;;;6213188;23;20000;-77
2024/02/21 02:36:56;;;;;;;5.03;2.27;;;4.60;99.90;;;;;;6213602;23;20035;-75
2024/02/21 02:39:21;;;;;;;7.43;1.70;;;4.60;99.90;;;;;;6213382;23;19993;-76
2024/02/21 02:41:47;;;;;;;5.60;1.90;;;4.60;99.90;;;;;;6213123;23;20015;-76
2024/02/21 02:44:12;;;;;;;4.53;1.90;;;4.60;99.90;;;;;;6212380;23;20011;-77
2024/02/21 02:46:41;;;;;;;4.97;1.90;;;4.60;99.90;;;;;;6213338;23;20004;-76
2024/02/21 02:49:06;;;;;;;8.87;2.10;;;4.60;99.90;;;;;;6213442;23;20039;-76
2024/02/21 02:51:32;;;;;;;6.17;2.20;;;4.60;99.90;;;;;;6213904;23;20001;-76
2024/02/21 02:53:57;;;;;;;5.33;1.80;;;4.60;99.90;;;;;;6212996;23;20016;-77
2024/02/21 02:56:25;;;;;;;5.30;1.90;;;4.60;99.90;;;;;;6213404;23;20431;-76
2024/02/21 02:58:51;;;;;;;6.33;1.80;;;4.60;99.90;;;;;;6213181;23;20001;-76
2024/02/21 03:01:17;;;;;;;4.87;1.63;;;4.60;99.90;;;;;;6214182;23;20004;-77
2024/02/21 03:03:42;;;;;;;5.43;1.90;;;4.60;99.90;;;;;;6215441;23;20003;-76
2024/02/21 03:06:08;;;;;;;7.70;2.43;;;4.60;99.90;;;;;;6215459;23;20008;-76
2024/02/21 03:08:34;;;;;;;5.83;2.00;;;4.70;99.90;;;;;;6215193;23;20487;-76
2024/02/21 03:10:59;;;;;;;5.93;1.90;;;4.60;99.90;;;;;;6215751;23;20012;-76
2024/02/21 03:13:25;;;;;;;7.17;1.70;;;4.60;99.90;;;;;;6215495;23;20400;-76
2024/02/21 03:15:51;;;;;;;7.77;1.93;;;4.60;99.90;;;;;;6213430;23;20004;-76
2024/02/21 03:18:17;;;;;;;5.30;1.60;;;4.60;99.90;;;;;;6215235;23;20066;-76
2024/02/21 03:20:42;;;;;;;7.37;2.00;;;4.60;99.90;;;;;;6216758;23;20020;-76
2024/02/21 03:23:08;;;;;;;3.83;1.73;;;4.60;99.90;;;;;;6215871;23;20051;-76
2024/02/21 03:25:33;;;;;;;12.97;2.33;;;4.60;99.90;;;;;;6214986;23;19997;-75
2024/02/21 03:27:59;;;;;;;5.57;2.13;;;4.60;99.90;;;;;;6215047;23;20003;-76
2024/02/21 03:30:24;;;;;;;7.27;2.00;;;4.60;99.90;;;;;;6215179;23;20000;-76
2024/02/21 03:32:51;;;;;;;8.13;1.90;;;4.60;99.90;;;;;;6215344;23;20083;-76
2024/02/21 03:35:16;;;;;;;4.33;1.80;;;4.60;99.90;;;;;;6214569;23;20005;-76
2024/02/21 03:37:42;;;;;;;8.17;2.37;;;4.60;99.90;;;;;;6215279;23;20335;-76
2024/02/21 03:40:11;;;;;;;5.80;2.00;;;4.60;99.90;;;;;;6215086;23;20458;-76
2024/02/21 03:42:37;;;;;;;6.80;1.90;;;4.60;99.90;;;;;;6214182;23;20087;-76
2024/02/21 03:45:03;;;;;;;4.17;1.80;;;4.60;99.90;;;;;;6214445;23;20031;-77
2024/02/21 03:47:29;;;;;;;4.27;1.63;;;4.60;99.90;;;;;;6215358;23;19997;-76
2024/02/21 03:49:55;;;;;;;7.33;2.20;;;4.60;99.90;;;;;;6214813;23;20062;-76
2024/02/21 03:52:20;;;;;;;7.07;1.67;;;4.60;99.90;;;;;;6215289;23;19997;-76
2024/02/21 03:54:46;;;;;;;5.10;1.70;;;4.60;99.90;;;;;;6214731;23;20001;-75
2024/02/21 03:57:11;;;;;;;4.20;1.87;;;4.60;99.90;;;;;;6215079;23;20011;-76
2024/02/21 03:59:39;;;;;;;5.73;1.83;;;4.60;99.90;;;;;;6215199;23;20005;-76
2024/02/21 04:02:08;;;;;;;6.03;1.60;;;4.50;99.90;;;;;;6214903;23;20000;-76
2024/02/21 04:04:34;;;;;;;5.87;1.67;;;4.50;99.90;;;;;;6214270;23;20075;-77
2024/02/21 04:07:00;;;;;;;5.93;1.70;;;4.50;99.90;;;;;;6215130;23;20008;-76
2024/02/21 04:09:25;;;;;;;5.50;1.63;;;4.40;99.90;;;;;;6215367;23;20009;-77
2024/02/21 04:11:51;;;;;;;4.50;1.77;;;4.50;99.90;;;;;;6214244;23;20067;-76
2024/02/21 04:14:17;;;;;;;4.23;1.67;;;4.40;99.90;;;;;;6214031;23;20062;-76
2024/02/21 04:16:42;;;;;;;4.30;1.80;;;4.40;99.90;;;;;;6214794;23;20012;-76
2024/02/21 04:19:08;;;;;;;5.03;1.63;;;4.30;99.90;;;;;;6214337;23;20058;-76
2024/02/21 04:21:34;;;;;;;4.40;1.60;;;4.30;99.90;;;;;;6214764;23;20016;-76
2024/02/21 04:23:59;;;;;;;4.07;2.10;;;4.30;99.90;;;;;;6213987;23;20012;-76
2024/02/21 04:26:25;;;;;;;5.00;1.53;;;4.30;99.90;;;;;;6214503;23;20482;-76
2024/02/21 04:28:51;;;;;;;5.23;1.70;;;4.20;99.90;;;;;;6214643;23;20050;-76
2024/02/21 04:31:16;;;;;;;5.57;2.13;;;4.20;99.90;;;;;;6214976;23;20004;-76
2024/02/21 04:33:41;;;;;;;7.47;2.00;;;4.20;99.90;;;;;;6214531;23;20073;-76
2024/02/21 04:36:07;;;;;;;3.57;1.70;;;4.20;99.90;;;;;;6214728;23;20046;-76
2024/02/21 04:38:33;;;;;;;4.63;1.80;;;4.10;99.90;;;;;;6214683;23;20335;-76
2024/02/21 04:40:58;;;;;;;4.67;1.70;;;4.10;99.90;;;;;;6214136;23;20013;-76
2024/02/21 04:43:25;;;;;;;9.83;2.80;;;4.10;99.90;;;;;;6214405;23;19997;-76
2024/02/21 04:45:50;;;;;;;4.87;1.77;;;4.10;99.90;;;;;;6213942;23;20008;-76
2024/02/21 04:48:16;;;;;;;5.50;1.63;;;4.10;99.90;;;;;;6214234;23;20005;-76
2024/02/21 04:50:42;;;;;;;5.30;1.83;;;4.10;99.90;;;;;;6214902;23;20004;-76
2024/02/21 04:53:07;;;;;;;5.73;1.80;;;4.00;99.90;;;;;;6212923;23;20009;-76
2024/02/21 04:55:33;;;;;;;6.53;2.10;;;4.00;99.90;;;;;;6214040;23;20016;-76
2024/02/21 04:57:59;;;;;;;2.97;1.33;;;4.00;99.90;;;;;;6214370;23;19997;-76
2024/02/21 05:00:24;;;;;;;3.43;1.43;;;4.00;99.90;;;;;;6214366;23;20019;-76
2024/02/21 05:02:50;;;;;;;3.37;1.57;;;3.90;99.90;;;;;;6214248;23;20473;-76
2024/02/21 05:05:16;;;;;;;3.30;1.37;;;3.90;99.90;;;;;;6213592;23;20137;-76
2024/02/21 05:07:42;;;;;;;6.37;1.90;;;3.90;99.90;;;;;;6214465;23;20001;-76
2024/02/21 05:10:08;;;;;;;4.30;1.50;;;3.90;99.90;;;;;;6214103;23;20433;-76
2024/02/21 05:12:34;;;;;;;8.73;1.73;;;3.90;99.90;;;;;;6214172;23;20000;-76
2024/02/21 05:14:59;;;;;;;4.40;1.60;;;3.90;99.90;;;;;;6213336;23;20111;-76
2024/02/21 05:17:25;;;;;;;3.03;1.30;;;3.90;99.90;;;;;;6213880;23;20027;-77
2024/02/21 05:19:50;;;;;;;4.83;1.90;;;3.90;99.90;;;;;;6214338;23;20009;-76
2024/02/21 05:22:16;;;;;;;3.67;1.53;;;3.90;99.90;;;;;;6213853;23;20415;-76
2024/02/21 05:24:41;;;;;;;5.43;1.40;;;3.90;99.90;;;;;;6212636;23;19997;-76
2024/02/21 05:27:07;;;;;;;5.83;1.57;;;3.90;99.90;;;;;;6213718;23;20447;-76
2024/02/21 05:29:33;;;;;;;4.60;1.43;;;4.00;99.90;;;;;;6214104;23;20059;-76
2024/02/21 05:31:59;;;;;;;5.53;1.30;;;4.00;99.90;;;;;;6214382;23;20068;-76
2024/02/21 05:34:25;;;;;;;7.57;1.90;;;4.00;99.90;;;;;;6213717;23;20382;-77
2024/02/21 05:36:51;;;;;;;3.60;1.70;;;4.00;99.90;;;;;;6213816;23;20090;-76
2024/02/21 05:39:18;;;;;;;4.80;1.43;;;4.00;99.90;;;;;;6214017;23;20102;-77
2024/02/21 05:41:43;;;;;;;5.23;1.50;;;4.00;99.90;;;;;;6213819;23;20436;-77
2024/02/21 05:44:10;;;;;;;7.17;1.60;;;4.00;99.90;;;;;;6217415;23;20001;-82
2024/02/21 05:46:35;;;;;;;4.17;1.60;;;4.00;99.90;;;;;;6216395;23;20079;-82
2024/02/21 05:49:01;;;;;;;6.57;1.53;;;3.90;99.90;;;;;;6219754;23;20059;-82
2024/02/21 05:51:27;;;;;;;5.07;2.00;;;4.00;99.90;;;;;;6219624;23;20480;-82
2024/02/21 05:53:52;;;;;;;4.97;2.07;;;3.90;99.90;;;;;;6219663;23;20068;-82
2024/02/21 05:56:19;;;;;;;6.57;2.40;;;3.90;99.90;;;;;;6218834;23;20007;-82
2024/02/21 05:58:44;;;;;;;6.10;2.10;;;3.90;99.90;;;;;;6218834;23;20003;-82
2024/02/21 06:01:10;;;;;;;4.03;1.60;;;3.90;99.90;;;;;;6219462;23;20009;-82
2024/02/21 06:03:36;;;;;;;4.70;1.70;;;3.90;99.90;;;;;;6219293;23;20004;-82
2024/02/21 06:06:02;;;;;;;7.03;1.60;;;3.80;99.90;;;;;;6217851;23;20028;-82
2024/02/21 06:08:27;;;;;;;4.37;1.60;;;3.80;99.90;;;;;;6215898;23;20008;-82
2024/02/21 06:10:54;;;;;;;3.17;1.53;;;3.70;99.90;;;;;;6218087;23;20004;-82
2024/02/21 06:13:24;;;;;;;4.57;1.60;;;3.70;99.90;;;;;;6218375;23;19997;-82
2024/02/21 06:15:50;;;;;;;4.43;1.50;;;3.70;99.90;;;;;;6215794;23;20013;-82
2024/02/21 06:18:19;;;;;;;4.57;1.67;;;3.60;99.90;;;;;;6217351;23;20000;-82
2024/02/21 06:20:46;;;;;;;3.47;1.57;;;3.60;99.90;;;;;;6217853;23;20432;-82
2024/02/21 06:23:16;;;;;;;5.77;1.67;;;3.60;99.90;;;;;;6218611;23;20067;-82
2024/02/21 06:25:41;;;;;;;8.83;1.80;;;3.60;99.90;;;;;;6218209;23;20008;-82
2024/02/21 06:28:07;;;;;;;1.77;1.23;;;3.60;99.90;;;;;;6218938;23;19993;-82
2024/02/21 06:30:32;;;;;;;3.93;1.70;;;3.60;99.90;;;;;;6218653;23;20004;-82
2024/02/21 06:32:59;;;;;;;6.27;1.53;;;3.60;99.90;;;;;;6219357;23;20001;-82
2024/02/21 06:35:24;;;;;;;9.37;1.83;;;3.70;99.90;;;;;;6216643;23;20036;-82
2024/02/21 06:37:51;;;;;;;3.30;1.40;;;3.70;99.90;;;;;;6219390;23;20004;-82
2024/02/21 06:40:21;;;;;;;6.83;2.00;;;3.70;99.90;;;;;;6218158;23;20012;-82
2024/02/21 06:42:47;;;;;;;5.57;1.60;;;3.70;99.90;;;;;;6216993;23;20004;-82
2024/02/21 06:45:13;;;;;;;4.50;1.40;;;3.70;99.90;;;;;;6218281;23;20012;-82
2024/02/21 06:47:38;;;;;;;4.80;1.30;;;3.80;99.90;;;;;;6218075;23;20011;-82
2024/02/21 06:50:04;;;;;;;5.00;1.53;;;3.80;99.90;;;;;;6218405;23;20004;-81
2024/02/21 06:52:30;;;;;;;6.17;1.50;;;3.80;99.90;;;;;;6218018;23;20091;-81
2024/02/21 06:54:56;;;;;;;3.90;1.40;;;3.80;99.90;;;;;;6218347;23;20016;-82
2024/02/21 06:57:22;;;;;;;5.70;1.60;;;3.80;99.90;;;;;;6218195;23;20335;-81
2024/02/21 06:59:48;;;;;;;3.93;1.30;;;3.90;99.90;;;;;;6218128;23;20059;-82
2024/02/21 07:02:13;;;;;;;5.07;1.40;;;3.90;99.90;;;;;;6218996;23;20472;-81
2024/02/21 07:04:39;;;;;;;9.37;1.57;;;3.90;99.90;;;;;;6219671;23;20323;-82
2024/02/21 07:07:04;;;;;;;7.37;1.63;;;4.00;99.90;;;;;;6220504;23;20027;-81
2024/02/21 07:09:31;;;;;;;4.90;1.13;;;4.00;99.90;;;;;;6217091;23;20004;-83
2024/02/21 07:12:00;;;;;;;3.83;1.10;;;4.00;99.90;;;;;;6219099;23;19993;-82
2024/02/21 07:14:27;;;;;;;4.90;1.30;;;4.10;99.90;;;;;;6218289;23;20071;-82
2024/02/21 07:16:54;;;;;;;5.93;1.37;;;4.10;99.90;;;;;;6218867;23;20009;-82
2024/02/21 07:19:19;;;;;;;7.93;1.80;;;4.20;99.90;;;;;;6219064;23;20044;-82
2024/02/21 07:21:45;;;;;;;4.40;1.53;;;4.20;99.90;;;;;;6218019;23;20005;-81
2024/02/21 07:24:12;;;;;;;6.43;1.40;;;4.30;99.90;;;;;;6217645;23;20067;-82
2024/02/21 07:26:40;;;;;;;5.63;1.13;;;4.30;99.90;;;;;;6219084;23;20008;-84
2024/02/21 07:29:06;;;;;;;3.47;1.40;;;4.30;99.90;;;;;;6217554;23;20083;-82
2024/02/21 07:31:38;;;;;;;6.13;1.40;;;4.40;99.90;;;;;;6217905;23;20661;-82
2024/02/21 07:34:03;;;;;;;8.13;1.37;;;4.40;99.90;;;;;;6218138;23;20008;-82
2024/02/21 07:36:30;;;;;;;5.27;1.10;;;4.40;99.90;;;;;;6217343;23;19996;-82
2024/02/21 07:38:55;;;;;;;2.53;1.40;;;4.50;99.90;;;;;;6216634;23;20020;-82
2024/02/21 07:41:21;;;;;;;8.23;1.30;;;4.50;99.90;;;;;;6217702;23;20339;-85
2024/02/21 07:43:48;;;;;;;2.77;1.20;;;4.60;99.90;;;;;;6218300;23;20115;-84
2024/02/21 07:46:14;;;;;;;3.13;1.30;;;4.70;99.90;;;;;;6218260;23;20011;-81
2024/02/21 07:48:39;;;;;;;2.77;1.20;;;4.70;99.90;;;;;;6220649;23;20024;-82
2024/02/21 07:51:05;;;;;;;4.90;1.33;;;4.80;99.90;;;;;;6221854;23;20423;-82
2024/02/21 07:53:30;;;;;;;2.13;1.23;;;4.80;99.90;;;;;;6223456;23;19997;-81
2024/02/21 07:55:56;;;;;;;1.77;0.83;;;4.90;99.90;;;;;;6219045;23;20004;-82
2024/02/21 07:58:22;;;;;;;1.87;0.90;;;5.00;99.90;;;;;;6219067;23;20035;-81
2024/02/21 08:00:48;;;;;;;3.67;1.00;;;5.10;99.90;;;;;;6192537;23;20103;-82
2024/02/21 08:03:15;;;;;;;2.83;1.10;;;5.10;99.90;;;;;;6218227;23;20095;-82
2024/02/21 08:05:41;;;;;;;2.17;1.10;;;5.20;99.90;;;;;;6220305;23;19997;-83
2024/02/21 08:08:08;;;;;;;3.03;1.37;;;5.30;99.90;;;;;;6220096;23;20087;-82
2024/02/21 08:10:33;;;;;;;3.03;1.10;;;5.50;99.90;;;;;;6220729;23;20031;-82
2024/02/21 08:12:59;;;;;;;7.53;2.37;;;5.60;99.90;;;;;;6216345;23;20427;-75
2024/02/21 08:15:28;;;;;;;1.87;1.17;;;5.80;99.90;;;;;;6213748;23;20085;-76
2024/02/21 08:17:58;;;;;;;2.13;1.20;;;5.90;99.90;;;;;;6213905;23;20463;-76
2024/02/21 08:20:24;;;;;;;2.23;1.13;;;6.00;99.90;;;;;;6211144;23;20009;-76
2024/02/21 08:22:49;;;;;;;7.53;1.23;;;6.10;99.90;;;;;;6212667;23;20004;-77
2024/02/21 08:25:15;;;;;;;2.20;1.10;;;6.30;99.90;;;;;;6213491;23;20001;-77
2024/02/21 08:27:40;;;;;;;3.67;0.90;;;6.50;99.90;;;;;;6213692;23;20060;-77
2024/02/21 08:30:07;;;;;;;1.30;1.00;;;6.60;99.90;;;;;;6213340;23;20016;-76
2024/02/21 08:32:35;;;;;;;3.57;1.07;;;6.80;99.90;;;;;;6213040;23;20004;-77
2024/02/21 08:35:01;;;;;;;7.43;1.30;;;6.90;99.90;;;;;;6212592;23;20057;-76
2024/02/21 08:37:30;;;;;;;3.60;1.30;;;7.00;99.90;;;;;;6214255;23;20040;-77
2024/02/21 08:39:55;;;;;;;3.43;1.43;;;7.30;99.90;;;;;;6214998;23;20024;-78
2024/02/21 08:42:21;;;;;;;4.83;1.23;;;7.40;99.90;;;;;;6214421;23;20050;-77
2024/02/21 08:44:46;;;;;;;1.97;1.03;;;7.60;99.90;;;;;;6213123;23;20304;-77
2024/02/21 08:47:12;;;;;;;2.03;1.10;;;7.60;99.90;;;;;;6213732;23;20435;-77
2024/02/21 08:49:37;;;;;;;1.37;0.90;;;7.70;99.90;;;;;;6213690;23;20412;-77
2024/02/21 08:52:05;;;;;;;3.70;1.20;;;7.70;99.90;;;;;;6214210;23;20020;-77
2024/02/21 08:54:31;;;;;;;2.60;1.00;;;7.90;99.90;;;;;;6213824;23;20122;-77
2024/02/21 08:56:56;;;;;;;3.97;1.10;;;8.00;99.90;;;;;;6213539;23;20000;-76
2024/02/21 08:59:22;;;;;;;1.00;0.73;;;8.10;99.90;;;;;;6213883;23;19996;-77
2024/02/21 09:01:47;;;;;;;2.80;0.90;;;8.20;99.90;;;;;;6212195;23;20044;-79
2024/02/21 09:04:13;;;;;;;1.20;0.87;;;8.30;99.90;;;;;;6215730;23;20047;-79
2024/02/21 09:06:41;;;;;;;2.10;1.00;;;8.40;99.90;;;;;;6217067;23;20008;-79
2024/02/21 09:09:08;;;;;;;3.93;1.20;;;8.50;99.90;;;;;;6215560;23;20039;-78
2024/02/21 09:11:34;;;;;;;2.20;1.03;;;8.60;99.90;;;;;;6214042;23;20008;-78
2024/02/21 09:13:59;;;;;;;2.93;0.90;;;8.70;99.90;;;;;;6212909;23;20009;-78
2024/02/21 09:16:25;;;;;;;2.10;0.80;;;8.80;99.90;;;;;;6214353;23;20070;-78
2024/02/21 09:18:50;;;;;;;2.03;0.97;;;8.90;99.90;;;;;;6213453;23;19996;-77
2024/02/21 09:21:16;;;;;;;1.77;0.90;;;9.00;99.90;;;;;;6214340;23;20435;-78
2024/02/21 09:23:41;;;;;;;2.00;1.00;;;9.10;99.90;;;;;;6214684;23;20001;-77
2024/02/21 09:26:10;;;;;;;3.23;1.10;;;9.10;99.90;;;;;;6214578;23;20004;-78
2024/02/21 09:28:35;;;;;;;3.07;1.00;;;9.30;99.90;;;;;;6215204;23;20071;-78
2024/02/21 09:31:01;;;;;;;2.20;1.00;;;9.40;99.90;;;;;;6214429;23;20467;-78
2024/02/21 09:33:27;;;;;;;4.00;1.00;;;9.50;99.90;;;;;;6212329;23;20076;-78
2024/02/21 09:35:53;;;;;;;1.40;1.10;;;9.70;99.90;;;;;;6213819;23;20024;-78
2024/02/21 09:38:18;;;;;;;2.03;1.00;;;9.70;99.90;;;;;;6215278;23;20064;-77
2024/02/21 09:40:44;;;;;;;2.87;1.50;;;9.60;99.90;;;;;;6211925;23;20433;-78
2024/02/21 09:43:09;;;;;;;2.87;1.57;;;9.70;99.90;;;;;;6215672;23;20016;-78
2024/02/21 09:45:35;;;;;;;6.40;2.00;;;9.90;99.90;;;;;;6215739;23;20007;-78
2024/02/21 09:48:22;;;;;;;4.50;1.70;;;10.00;99.90;;;;;;6215170;23;20447;-77
2024/02/21 09:50:50;;;;;;;3.47;1.67;;;10.10;99.90;;;;;;6215556;23;20024;-79
2024/02/21 09:53:16;;;;;;;6.30;2.10;;;10.30;99.90;;;;;;6216470;23;20442;-78
2024/02/21 09:55:43;;;;;;;7.73;2.03;;;10.30;99.90;;;;;;6214320;23;19997;-78
2024/02/21 09:58:09;;;;;;;2.73;1.73;;;10.40;99.90;;;;;;6215904;23;20354;-78
2024/02/21 10:00:36;;;;;;;3.73;1.97;;;10.50;99.90;;;;;;6215316;23;20501;-78
2024/02/21 10:03:08;;;;;;;2.60;1.20;;;10.60;99.90;;;;;;6214755;23;20000;-78
2024/02/21 10:05:38;;;;;;;3.00;1.50;;;10.60;99.90;;;;;;6214396;23;20366;-78
2024/02/21 10:08:05;;;;;;;4.30;1.80;;;10.70;99.90;;;;;;6214455;23;20063;-78
2024/02/21 10:10:41;;;;;;;3.67;1.80;;;10.70;99.90;;;;;;6214007;23;20005;-78
2024/02/21 10:13:07;;;;;;;3.93;1.50;;;10.70;99.90;;;;;;6215244;23;20016;-78
2024/02/21 10:15:33;;;;;;;5.90;1.60;;;10.80;99.90;;;;;;6214292;23;20001;-77
2024/02/21 10:18:00;;;;;;;5.87;1.80;;;10.70;99.90;;;;;;6215733;23;20015;-77
2024/02/21 10:20:27;;;;;;;4.80;1.50;;;10.70;99.90;;;;;;6216161;23;20079;-79
2024/02/21 10:23:09;;;;;;;8.90;1.23;;;10.80;99.90;;;;;;6216018;23;20020;-78
2024/02/21 10:25:35;;;;;;;1.90;0.90;;;10.80;99.90;;;;;;6215123;23;20288;-78
2024/02/21 10:28:03;;;;;;;1.70;1.00;;;10.90;99.90;;;;;;6216191;23;20004;-78
2024/02/21 10:30:29;;;;;;;2.07;1.00;;;11.00;99.90;;;;;;6213043;23;20007;-77
2024/02/21 10:32:54;;;;;;;3.08;1.00;;;11.20;99.90;;;;;;6213999;23;20000;-78
2024/02/21 10:35:30;;;;;;;1.58;0.80;;;11.20;99.90;;;;;;6214183;23;20007;-78
2024/02/21 10:37:57;;;;;;;1.73;0.80;;;11.20;99.90;;;;;;6214752;23;20003;-78
2024/02/21 10:40:24;;;;;;;1.90;0.90;;;11.30;99.90;;;;;;6215779;23;20509;-78
2024/02/21 10:43:00;;;;;;;4.90;0.80;;;11.50;99.90;;;;;;6215247;23;20052;-78
2024/02/21 10:45:31;;;;;;;1.45;0.70;;;11.40;99.90;;;;;;6214949;23;20008;-78
2024/02/21 10:48:07;;;;;;;2.53;0.80;;;11.50;99.90;;;;;;6216112;23;20375;-78
2024/02/21 10:50:41;;;;;;;3.58;0.82;;;11.70;99.90;;;;;;6216466;23;20464;-78
2024/02/21 10:53:39;;;;;;;3.77;0.77;;;11.70;99.90;;;;;;6216609;23;20115;-78
2024/02/21 10:56:28;;;;;;;1.90;0.70;;;11.70;99.90;;;;;;6167885;23;20014;-83
2024/02/21 10:58:57;;;;;;;2.55;0.70;;;11.70;99.90;;;;;;6217138;23;20005;-83
2024/02/21 11:01:24;;;;;;;2.63;0.80;;;11.70;99.90;;;;;;6215867;23;20019;-83
2024/02/21 11:03:53;;;;;;;1.20;0.70;;;11.80;99.90;;;;;;6216388;23;20336;-83
2024/02/21 11:06:20;;;;;;;1.48;0.70;;;11.90;99.90;;;;;;6215213;23;20011;-83
2024/02/21 11:08:45;;;;;;;0.95;0.80;;;11.90;99.90;;;;;;6215377;23;20028;-83
2024/02/21 11:11:18;;;;;;;3.35;0.80;;;11.90;99.90;;;;;;6215146;23;20079;-83
2024/02/21 11:13:45;;;;;;;1.13;0.57;;;12.00;99.90;;;;;;6215553;23;20439;-83
2024/02/21 11:16:21;;;;;;;3.67;0.90;;;12.10;99.90;;;;;;6214887;23;20079;-83
2024/02/21 11:18:46;;;;;;;1.25;0.70;;;12.20;99.90;;;;;;6215946;23;20004;-84
2024/02/21 11:21:12;;;;;;;2.53;0.80;;;12.20;99.90;;;;;;6215228;23;20086;-83
2024/02/21 11:23:38;;;;;;;6.22;0.70;;;12.30;99.90;;;;;;6215666;23;20362;-83
2024/02/21 11:26:08;;;;;;;3.65;0.77;;;12.30;99.90;;;;;;6216840;23;20005;-84
2024/02/21 11:28:33;;;;;;;1.92;0.82;;;12.20;99.90;;;;;;6218781;23;20008;-84
2024/02/21 11:31:15;;;;;;;1.33;0.80;;;12.30;99.90;;;;;;6218044;23;20005;-84
2024/02/21 11:33:42;;;;;;;1.40;0.70;;;12.40;99.90;;;;;;6219080;23;20020;-84
2024/02/21 11:36:08;;;;;;;1.33;0.70;;;12.40;99.90;;;;;;6218744;23;20009;-83
2024/02/21 11:38:34;;;;;;;4.35;0.80;;;12.40;99.90;;;;;;6218320;23;20011;-84
2024/02/21 11:40:59;;;;;;;1.45;0.80;;;12.40;99.90;;;;;;6217948;23;20013;-83
2024/02/21 11:43:25;;;;;;;6.75;0.70;;;12.40;99.90;;;;;;6217112;23;20366;-78
2024/02/21 11:45:58;;;;;;;1.08;0.55;;;12.40;99.90;;;;;;6213138;23;20001;-79
2024/02/21 11:48:24;;;;;;;1.50;0.80;;;12.20;99.90;;;;;;6214275;23;20076;-79
2024/02/21 11:50:54;;;;;;;4.07;0.77;;;12.20;99.90;;;;;;6215048;23;20584;-79
2024/02/21 11:53:20;;;;;;;2.28;0.60;;;12.30;99.90;;;;;;6215640;23;20015;-79
2024/02/21 11:55:46;;;;;;;0.85;0.60;;;12.30;99.90;;;;;;6214357;23;20000;-79
2024/02/21 11:58:12;;;;;;;1.15;0.60;;;12.50;99.90;;;;;;6215281;23;20001;-79
2024/02/21 12:00:37;;;;;;;1.77;0.80;;;12.60;99.90;;;;;;6209383;23;20015;-78
2024/02/21 12:03:04;;;;;;;4.43;1.00;;;12.60;99.90;;;;;;6212173;23;20119;-77
2024/02/21 12:05:31;;;;;;;1.38;0.70;;;12.80;99.90;;;;;;6216403;23;20009;-83
2024/02/21 12:07:58;;;;;;;2.30;0.93;;;12.90;99.90;;;;;;6220931;23;20079;-82
2024/02/21 12:10:26;;;;;;;3.25;0.80;;;13.00;99.90;;;;;;6219813;23;20176;-82
2024/02/21 12:12:52;;;;;;;1.05;0.60;;;13.10;99.90;;;;;;6219724;23;20121;-83
2024/02/21 12:15:18;;;;;;;1.25;0.60;;;13.30;99.90;;;;;;6217947;23;20001;-83
2024/02/21 12:17:44;;;;;;;2.22;0.80;;;13.40;99.90;;;;;;6219488;23;20017;-83
2024/02/21 12:20:11;;;;;;;1.00;0.68;;;13.50;99.90;;;;;;6218524;23;20013;-82
2024/02/21 12:22:49;;;;;;;1.50;0.70;;;13.50;99.90;;;;;;6219184;23;20083;-83
2024/02/21 12:25:19;;;;;;;0.77;0.77;;;13.50;99.90;;;;;;6216532;23;19992;-83
2024/02/21 12:27:45;;;;;;;1.98;0.80;;;13.70;99.90;;;;;;6218743;23;20001;-83
2024/02/21 12:30:11;;;;;;;0.88;0.60;;;13.80;99.90;;;;;;6218952;23;20378;-82
2024/02/21 12:32:37;;;;;;;1.52;0.70;;;13.80;99.90;;;;;;6219232;23;20009;-83
2024/02/21 12:35:03;;;;;;;0.60;0.50;;;13.50;99.90;;;;;;6217753;23;20019;-83
2024/02/21 12:37:29;;;;;;;3.00;0.60;;;13.50;99.90;;;;;;6219475;23;20008;-82
2024/02/21 12:39:54;;;;;;;1.85;0.70;;;13.40;99.90;;;;;;6219661;23;20007;-82
2024/02/21 12:42:20;;;;;;;1.20;0.60;;;13.30;99.90;;;;;;6219423;23;20000;-83
2024/02/21 12:44:46;;;;;;;1.48;0.70;;;13.30;99.90;;;;;;6217217;23;20005;-82
2024/02/21 12:47:11;;;;;;;1.17;0.60;;;13.40;99.90;;;;;;6218282;23;20008;-80
2024/02/21 12:49:37;;;;;;;1.00;0.70;;;13.30;99.90;;;;;;6217752;23;19997;-81
2024/02/21 12:52:03;;;;;;;0.85;0.60;;;13.40;99.90;;;;;;6218539;23;20031;-80